createdAt,value
2022-11-01T00:01:07.618Z,20.27
2022-11-01T00:03:34.320Z,20.27
2022-11-01T00:06:00.928Z,20.17
2022-11-01T00:08:27.430Z,21.05
2022-11-01T00:11:01.836Z,21.13
2022-11-01T00:13:28.848Z,20.70
2022-11-01T00:15:55.288Z,20.13
2022-11-01T00:18:21.750Z,21.23
2022-11-01T00:20:48.210Z,22.20
2022-11-01T00:23:15.963Z,19.65
2022-11-01T00:25:42.461Z,21.45
2022-11-01T00:28:08.927Z,20.35
2022-11-01T00:30:39.282Z,21.85
2022-11-01T00:33:06.070Z,21.85
2022-11-01T00:35:33.154Z,21.83
2022-11-01T00:38:00.347Z,21.83
2022-11-01T00:40:27.092Z,22.58
2022-11-01T00:42:53.585Z,22.40
2022-11-01T00:45:20.063Z,22.63
2022-11-01T00:47:47.424Z,21.40
2022-11-01T00:50:14.154Z,22.48
2022-11-01T00:52:40.812Z,22.00
2022-11-01T00:55:07.552Z,22.67
2022-11-01T00:57:34.018Z,22.50
2022-11-01T01:00:00.599Z,22.58
2022-11-01T01:02:27.208Z,23.55
2022-11-01T01:04:54.737Z,22.90
2022-11-01T01:07:21.273Z,23.52
2022-11-01T01:09:47.734Z,24.20
2022-11-01T01:12:14.190Z,23.35
2022-11-01T01:14:40.635Z,24.27
2022-11-01T01:17:07.857Z,23.67
2022-11-01T01:19:34.392Z,24.80
2022-11-01T01:22:01.124Z,23.50
2022-11-01T01:24:27.828Z,23.98
2022-11-01T01:26:54.603Z,24.77
2022-11-01T01:29:21.070Z,24.80
2022-11-01T01:31:47.526Z,24.23
2022-11-01T01:34:13.978Z,25.20
2022-11-01T01:36:40.462Z,24.42
2022-11-01T01:39:06.943Z,24.60
2022-11-01T01:41:51.957Z,24.83
2022-11-01T01:44:46.178Z,26.15
2022-11-01T01:49:42.652Z,24.33
2022-11-01T01:52:09.523Z,25.58
2022-11-01T01:54:36.111Z,26.63
2022-11-01T01:57:02.558Z,25.63
2022-11-01T01:59:29.029Z,25.05
2022-11-01T02:01:55.670Z,25.25
2022-11-01T02:04:26.370Z,24.35
2022-11-01T02:06:52.825Z,24.48
2022-11-01T02:09:19.599Z,24.50
2022-11-01T02:11:46.144Z,24.30
2022-11-01T02:14:12.610Z,24.27
2022-11-01T02:16:46.400Z,25.25
2022-11-01T02:19:31.695Z,23.67
2022-11-01T02:22:23.220Z,24.60
2022-11-01T02:25:11.514Z,24.83
2022-11-01T02:27:43.898Z,24.75
2022-11-01T02:30:23.926Z,23.88
2022-11-01T02:33:07.625Z,24.38
2022-11-01T02:35:33.969Z,23.52
2022-11-01T02:38:18.495Z,24.73
2022-11-01T02:41:03.757Z,22.65
2022-11-01T02:43:33.356Z,24.77
2022-11-01T02:46:21.777Z,24.70
2022-11-01T02:48:48.378Z,24.42
2022-11-01T02:51:17.871Z,23.77
2022-11-01T02:53:44.446Z,24.13
2022-11-01T02:56:11.250Z,24.42
2022-11-01T02:58:37.706Z,24.02
2022-11-01T03:01:15.098Z,24.08
2022-11-01T03:03:43.502Z,24.60
2022-11-01T03:06:20.886Z,23.92
2022-11-01T03:08:59.249Z,23.50
2022-11-01T03:11:39.552Z,24.70
2022-11-01T03:14:14.825Z,23.90
2022-11-01T03:17:01.563Z,25.20
2022-11-01T03:19:43.975Z,24.10
2022-11-01T03:22:14.024Z,23.33
2022-11-01T03:24:43.517Z,24.48
2022-11-01T03:27:35.493Z,23.23
2022-11-01T03:30:05.645Z,23.08
2022-11-01T03:32:36.589Z,24.42
2022-11-01T03:35:03.797Z,23.50
2022-11-01T03:37:30.774Z,24.02
2022-11-01T03:39:58.317Z,23.45
2022-11-01T03:42:25.012Z,26.42
2022-11-01T03:44:57.404Z,24.58
2022-11-01T03:47:23.960Z,24.52
2022-11-01T03:50:13.590Z,23.60
2022-11-01T03:52:40.054Z,24.73
2022-11-01T03:55:19.385Z,24.85
2022-11-01T03:57:47.610Z,24.48
2022-11-01T04:00:19.216Z,24.80
2022-11-01T04:02:45.668Z,24.63
2022-11-01T04:05:12.446Z,27.05
2022-11-01T04:07:39.431Z,26.42
2022-11-01T04:10:06.815Z,25.83
2022-11-01T04:12:33.318Z,25.88
2022-11-01T04:15:18.309Z,25.13
2022-11-01T04:18:03.472Z,26.42
2022-11-01T04:20:36.277Z,27.83
2022-11-01T04:23:05.397Z,26.75
2022-11-01T04:25:33.056Z,28.10
2022-11-01T04:27:59.800Z,25.85
2022-11-01T04:30:28.096Z,26.75
2022-11-01T04:32:55.116Z,27.65
2022-11-01T04:35:22.355Z,28.70
2022-11-01T04:37:48.856Z,28.52
2022-11-01T04:40:15.479Z,27.98
2022-11-01T04:42:41.969Z,29.50
2022-11-01T04:45:08.910Z,28.85
2022-11-01T04:47:35.362Z,29.63
2022-11-01T04:50:01.818Z,29.00
2022-11-01T04:52:28.301Z,31.98
2022-11-01T04:54:54.768Z,29.67
2022-11-01T04:57:24.289Z,30.73
2022-11-01T04:59:51.510Z,29.05
2022-11-01T05:02:19.079Z,29.92
2022-11-01T05:04:45.655Z,29.15
2022-11-01T05:07:12.393Z,29.58
2022-11-01T05:09:38.841Z,29.55
2022-11-01T05:12:05.304Z,29.88
2022-11-01T05:14:31.752Z,29.02
2022-11-01T05:16:58.560Z,30.63
2022-11-01T05:19:25.274Z,28.58
2022-11-01T05:21:52.146Z,30.23
2022-11-01T05:24:19.754Z,30.05
2022-11-01T05:26:46.630Z,29.73
2022-11-01T05:29:24.453Z,30.80
2022-11-01T05:31:57.836Z,28.77
2022-11-01T05:34:24.288Z,28.88
2022-11-01T05:36:50.753Z,30.38
2022-11-01T05:39:17.290Z,30.38
2022-11-01T05:41:43.965Z,29.77
2022-11-01T05:44:10.453Z,29.33
2022-11-01T05:46:37.106Z,29.00
2022-11-01T05:49:04.652Z,29.13
2022-11-01T05:51:31.176Z,28.45
2022-11-01T05:53:57.737Z,29.17
2022-11-01T05:56:24.262Z,28.17
2022-11-01T05:58:50.829Z,28.98
2022-11-01T06:01:17.961Z,29.40
2022-11-01T06:03:49.416Z,28.38
2022-11-01T06:06:15.910Z,28.70
2022-11-01T06:08:42.452Z,30.13
2022-11-01T06:11:12.235Z,27.38
2022-11-01T06:13:38.814Z,29.05
2022-11-01T06:16:06.013Z,28.23
2022-11-01T06:18:34.775Z,28.73
2022-11-01T06:21:01.297Z,29.50
2022-11-01T06:23:27.831Z,28.95
2022-11-01T06:26:04.695Z,28.13
2022-11-01T06:28:33.977Z,28.38
2022-11-01T06:31:03.351Z,26.85
2022-11-01T06:33:30.643Z,28.25
2022-11-01T06:35:59.699Z,27.40
2022-11-01T06:38:26.313Z,27.77
2022-11-01T06:40:52.838Z,27.48
2022-11-01T06:43:19.375Z,27.90
2022-11-01T06:45:45.872Z,26.88
2022-11-01T06:48:12.446Z,28.02
2022-11-01T06:50:38.935Z,26.90
2022-11-01T06:53:05.463Z,28.60
2022-11-01T06:55:34.757Z,29.48
2022-11-01T06:58:04.744Z,28.05
2022-11-01T07:00:32.038Z,28.58
2022-11-01T07:03:04.314Z,28.17
2022-11-01T07:05:36.121Z,28.35
2022-11-01T07:08:14.534Z,29.25
2022-11-01T07:10:43.092Z,28.95
2022-11-01T07:13:14.541Z,29.35
2022-11-01T07:15:41.275Z,30.00
2022-11-01T07:18:12.303Z,30.73
2022-11-01T07:20:41.918Z,29.92
2022-11-01T07:23:17.637Z,28.50
2022-11-01T07:25:44.281Z,29.13
2022-11-01T07:28:12.017Z,31.42
2022-11-01T07:30:39.274Z,30.83
2022-11-01T07:33:06.118Z,30.77
2022-11-01T07:35:33.758Z,29.30
2022-11-01T07:38:02.823Z,29.33
2022-11-01T07:40:34.283Z,28.02
2022-11-01T07:43:02.270Z,28.95
2022-11-01T07:45:30.390Z,26.92
2022-11-01T07:48:34.446Z,26.38
2022-11-01T07:51:07.039Z,27.48
2022-11-01T07:53:33.717Z,28.75
2022-11-01T07:56:01.654Z,27.77
2022-11-01T07:58:28.373Z,27.80
2022-11-01T08:00:54.995Z,26.63
2022-11-01T08:03:21.582Z,26.23
2022-11-01T08:05:49.449Z,25.50
2022-11-01T08:08:17.001Z,26.13
2022-11-01T08:10:48.534Z,24.55
2022-11-01T08:13:20.543Z,24.65
2022-11-01T08:15:48.085Z,24.85
2022-11-01T08:18:15.262Z,25.13
2022-11-01T08:20:44.556Z,23.00
2022-11-01T08:23:11.640Z,22.08
2022-11-01T08:25:38.605Z,24.05
2022-11-01T08:28:07.642Z,22.20
2022-11-01T08:30:36.345Z,21.95
2022-11-01T08:33:04.274Z,20.77
2022-11-01T08:35:31.538Z,19.90
2022-11-01T08:37:59.168Z,20.02
2022-11-01T08:40:26.404Z,19.33
2022-11-01T08:42:52.940Z,19.08
2022-11-01T08:45:19.598Z,19.45
2022-11-01T08:47:46.130Z,19.33
2022-11-01T08:50:18.179Z,20.08
2022-11-01T08:52:46.947Z,19.55
2022-11-01T08:55:13.423Z,20.15
2022-11-01T08:57:39.981Z,18.75
2022-11-01T09:00:07.191Z,18.60
2022-11-01T09:02:34.072Z,17.42
2022-11-01T09:05:05.020Z,18.52
2022-11-01T09:07:31.737Z,17.50
2022-11-01T09:09:59.395Z,17.40
2022-11-01T09:12:29.025Z,15.43
2022-11-01T09:14:55.614Z,15.80
2022-11-01T09:17:22.209Z,15.70
2022-11-01T09:19:48.765Z,14.35
2022-11-01T09:22:15.287Z,13.98
2022-11-01T09:24:45.194Z,13.85
2022-11-01T09:27:14.321Z,13.77
2022-11-01T09:29:40.857Z,13.18
2022-11-01T09:32:07.560Z,11.10
2022-11-01T09:34:34.492Z,9.10
2022-11-01T09:37:03.088Z,9.07
2022-11-01T09:39:29.627Z,8.95
2022-11-01T09:42:04.227Z,7.97
2022-11-01T09:44:35.853Z,7.85
2022-11-01T09:47:09.317Z,7.82
2022-11-01T09:49:38.589Z,8.38
2022-11-01T09:52:06.173Z,7.10
2022-11-01T09:54:44.040Z,7.13
2022-11-01T09:57:37.830Z,7.15
2022-11-01T10:00:13.325Z,6.78
2022-11-01T10:03:34.146Z,6.68
2022-11-01T10:06:17.897Z,6.95
2022-11-01T10:08:58.921Z,6.45
2022-11-01T10:11:36.386Z,6.15
2022-11-01T10:14:42.502Z,4.40
2022-11-01T10:17:19.968Z,3.78
2022-11-01T10:19:48.762Z,2.85
2022-11-01T10:22:35.542Z,3.33
2022-11-01T10:25:10.746Z,3.20
2022-11-01T10:27:52.197Z,2.90
2022-11-01T10:30:19.772Z,2.47
2022-11-01T10:32:58.241Z,2.50
2022-11-01T10:35:29.849Z,2.50
2022-11-01T10:38:35.158Z,2.53
2022-11-01T10:41:50.748Z,2.65
2022-11-01T10:44:27.836Z,3.03
2022-11-01T10:46:54.836Z,2.53
2022-11-01T10:49:35.070Z,2.40
2022-11-01T10:52:08.566Z,2.55
2022-11-01T10:54:37.282Z,2.35
2022-11-01T10:57:08.295Z,2.30
2022-11-01T10:59:41.379Z,2.47
2022-11-01T11:02:43.719Z,2.05
2022-11-01T11:05:14.540Z,2.20
2022-11-01T11:07:41.821Z,2.38
2022-11-01T11:10:24.073Z,2.47
2022-11-01T11:12:54.089Z,2.05
2022-11-01T11:15:28.650Z,2.75
2022-11-01T11:17:57.940Z,2.10
2022-11-01T11:20:26.481Z,2.30
2022-11-01T11:22:53.281Z,2.20
2022-11-01T11:25:23.442Z,2.63
2022-11-01T11:27:54.919Z,2.45
2022-11-01T11:30:30.275Z,2.85
2022-11-01T11:32:58.627Z,2.38
2022-11-01T11:35:27.553Z,2.72
2022-11-01T11:38:00.120Z,2.55
2022-11-01T11:40:39.115Z,3.00
2022-11-01T11:43:33.212Z,2.75
2022-11-01T11:46:12.373Z,2.38
2022-11-01T11:48:53.170Z,2.83
2022-11-01T11:51:21.523Z,2.80
2022-11-01T11:54:06.830Z,3.42
2022-11-01T11:56:36.148Z,3.10
2022-11-01T11:59:08.507Z,3.60
2022-11-01T12:01:35.431Z,3.27
2022-11-01T12:04:12.402Z,3.65
2022-11-01T12:06:46.649Z,4.13
2022-11-01T12:09:36.852Z,3.72
2022-11-01T12:12:27.248Z,3.45
2022-11-01T12:14:56.271Z,3.50
2022-11-01T12:17:26.793Z,3.92
2022-11-01T12:20:15.494Z,3.80
2022-11-01T12:23:02.896Z,3.45
2022-11-01T12:25:29.596Z,3.70
2022-11-01T12:28:01.875Z,3.45
2022-11-01T12:30:31.397Z,3.07
2022-11-01T12:32:59.775Z,3.75
2022-11-01T12:35:37.704Z,3.22
2022-11-01T12:38:35.082Z,3.05
2022-11-01T12:41:13.723Z,3.58
2022-11-01T12:44:13.978Z,4.13
2022-11-01T12:46:55.303Z,3.03
2022-11-01T12:49:36.993Z,4.82
2022-11-01T12:52:14.142Z,3.22
2022-11-01T12:54:46.949Z,3.80
2022-11-01T12:57:16.025Z,2.63
2022-11-01T12:59:43.881Z,3.22
2022-11-01T13:02:29.907Z,4.00
2022-11-01T13:05:06.445Z,2.95
2022-11-01T13:07:35.723Z,3.15
2022-11-01T13:10:20.662Z,3.45
2022-11-01T13:12:59.543Z,3.88
2022-11-01T13:16:16.724Z,4.05
2022-11-01T13:19:30.024Z,3.65
2022-11-01T13:22:29.827Z,4.22
2022-11-01T13:25:18.378Z,3.33
2022-11-01T13:28:02.328Z,3.60
2022-11-01T13:33:33.952Z,4.00
2022-11-01T13:36:17.945Z,4.32
2022-11-01T13:39:02.047Z,4.03
2022-11-01T13:41:33.943Z,3.45
2022-11-01T13:44:11.614Z,3.92
2022-11-01T13:46:41.705Z,4.57
2022-11-01T13:49:11.028Z,3.50
2022-11-01T13:51:41.557Z,5.13
2022-11-01T13:54:27.688Z,4.65
2022-11-01T13:57:13.992Z,4.00
2022-11-01T13:59:44.380Z,3.90
2022-11-01T14:02:23.380Z,4.22
2022-11-01T14:05:03.643Z,3.53
2022-11-01T14:07:45.191Z,4.30
2022-11-01T14:10:31.440Z,4.32
2022-11-01T14:13:06.864Z,5.28
2022-11-01T14:15:54.962Z,3.85
2022-11-01T14:18:21.626Z,4.80
2022-11-01T14:20:50.471Z,3.83
2022-11-01T14:23:27.671Z,4.00
2022-11-01T14:26:19.019Z,4.13
2022-11-01T14:28:55.293Z,4.95
2022-11-01T14:31:25.628Z,3.75
2022-11-01T14:33:56.107Z,4.20
2022-11-01T14:36:28.415Z,5.00
2022-11-01T14:39:15.346Z,4.20
2022-11-01T14:41:46.027Z,4.60
2022-11-01T14:44:30.605Z,3.97
2022-11-01T14:47:05.312Z,4.30
2022-11-01T14:49:43.230Z,4.00
2022-11-01T14:52:24.624Z,4.43
2022-11-01T14:55:04.423Z,4.40
2022-11-01T14:57:33.268Z,4.32
2022-11-01T15:00:11.340Z,4.20
2022-11-01T15:02:38.145Z,4.18
2022-11-01T15:05:04.847Z,3.67
2022-11-01T15:07:38.038Z,4.22
2022-11-01T15:10:13.731Z,4.15
2022-11-01T15:12:47.965Z,3.67
2022-11-01T15:15:23.846Z,3.65
2022-11-01T15:18:02.732Z,3.83
2022-11-01T15:20:34.886Z,3.75
2022-11-01T15:23:07.603Z,3.80
2022-11-01T15:25:34.100Z,3.50
2022-11-01T15:28:00.651Z,3.90
2022-11-01T15:30:30.235Z,3.08
2022-11-01T15:33:16.582Z,4.20
2022-11-01T15:35:43.113Z,3.33
2022-11-01T15:38:20.605Z,3.38
2022-11-01T15:40:48.486Z,4.28
2022-11-01T15:43:18.153Z,3.03
2022-11-01T15:46:07.641Z,3.42
2022-11-01T15:48:35.667Z,3.42
2022-11-01T15:51:07.292Z,3.85
2022-11-01T15:53:35.462Z,3.80
2022-11-01T15:56:15.773Z,3.75
2022-11-01T15:59:02.451Z,3.50
2022-11-01T16:01:29.050Z,3.63
2022-11-01T16:04:00.537Z,3.65
2022-11-01T16:06:44.788Z,3.65
2022-11-01T16:09:28.212Z,3.70
2022-11-01T16:11:59.235Z,4.63
2022-11-01T16:14:33.563Z,3.80
2022-11-01T16:17:06.350Z,4.13
2022-11-01T16:19:37.200Z,3.78
2022-11-01T16:22:05.332Z,3.67
2022-11-01T16:24:32.325Z,3.67
2022-11-01T16:27:03.529Z,3.90
2022-11-01T16:29:48.383Z,3.90
2022-11-01T16:32:27.194Z,3.85
2022-11-01T16:34:55.838Z,4.03
2022-11-01T16:37:27.583Z,3.75
2022-11-01T16:39:54.384Z,4.22
2022-11-01T16:42:21.853Z,3.60
2022-11-01T16:44:55.711Z,4.15
2022-11-01T16:47:22.748Z,3.15
2022-11-01T16:49:51.325Z,3.45
2022-11-01T16:52:18.387Z,3.33
2022-11-01T16:54:48.919Z,3.67
2022-11-01T16:57:27.184Z,3.25
2022-11-01T16:59:57.288Z,3.70
2022-11-01T17:02:29.627Z,3.60
2022-11-01T17:05:16.854Z,3.85
2022-11-01T17:07:43.313Z,4.40
2022-11-01T17:10:18.162Z,3.70
2022-11-01T17:12:45.112Z,3.00
2022-11-01T17:15:12.986Z,3.00
2022-11-01T17:17:40.698Z,3.33
2022-11-01T17:20:14.453Z,3.55
2022-11-01T17:22:41.710Z,3.17
2022-11-01T17:25:14.804Z,3.20
2022-11-01T17:27:41.254Z,2.70
2022-11-01T17:30:08.072Z,2.65
2022-11-01T17:32:34.516Z,3.03
2022-11-01T17:35:00.984Z,2.55
2022-11-01T17:37:31.396Z,2.63
2022-11-01T17:39:59.571Z,2.80
2022-11-01T17:42:26.040Z,2.78
2022-11-01T17:44:52.495Z,3.05
2022-11-01T17:47:19.109Z,2.78
2022-11-01T17:49:45.592Z,2.95
2022-11-01T17:52:12.024Z,3.53
2022-11-01T17:54:38.485Z,3.08
2022-11-01T17:57:04.929Z,2.97
2022-11-01T17:59:31.411Z,2.50
2022-11-01T18:01:58.113Z,2.72
2022-11-01T18:04:24.673Z,2.70
2022-11-01T18:06:51.947Z,2.88
2022-11-01T18:09:24.084Z,2.45
2022-11-01T18:11:58.564Z,2.67
2022-11-01T18:14:49.837Z,2.33
2022-11-01T18:17:18.889Z,2.35
2022-11-01T18:19:53.985Z,2.30
2022-11-01T18:22:35.509Z,2.58
2022-11-01T18:25:11.506Z,2.67
2022-11-01T18:27:39.032Z,2.30
2022-11-01T18:30:14.090Z,2.55
2022-11-01T18:33:02.050Z,2.70
2022-11-01T18:35:32.992Z,2.40
2022-11-01T18:38:12.714Z,2.35
2022-11-01T18:40:55.473Z,2.97
2022-11-01T18:43:21.963Z,2.63
2022-11-01T18:46:11.539Z,2.58
2022-11-01T18:48:35.069Z,2.20
2022-11-01T18:51:05.043Z,2.60
2022-11-01T18:53:33.222Z,2.80
2022-11-01T18:56:22.448Z,3.00
2022-11-01T18:58:50.170Z,2.60
2022-11-01T19:01:21.856Z,2.38
2022-11-01T19:03:58.280Z,2.35
2022-11-01T19:06:28.803Z,2.25
2022-11-01T19:08:57.088Z,2.92
2022-11-01T19:11:26.742Z,2.67
2022-11-01T19:13:53.700Z,2.30
2022-11-01T19:16:20.600Z,2.03
2022-11-01T19:18:49.581Z,2.50
2022-11-01T19:21:18.516Z,2.50
2022-11-01T19:23:54.457Z,2.83
2022-11-01T19:26:23.386Z,2.20
2022-11-01T19:28:52.372Z,2.55
2022-11-01T19:31:19.125Z,2.50
2022-11-01T19:33:46.737Z,2.25
2022-11-01T19:36:19.332Z,2.45
2022-11-01T19:38:46.587Z,2.70
2022-11-01T19:41:15.424Z,2.35
2022-11-01T19:43:41.875Z,2.28
2022-11-01T19:46:11.539Z,2.15
2022-11-01T19:48:38.100Z,2.35
2022-11-01T19:51:13.272Z,2.08
2022-11-01T19:53:42.435Z,2.20
2022-11-01T19:56:29.825Z,2.40
2022-11-01T19:59:00.479Z,2.33
2022-11-01T20:01:53.511Z,2.30
2022-11-01T20:04:27.889Z,2.25
2022-11-01T20:06:57.560Z,2.13
2022-11-01T20:09:26.636Z,2.22
2022-11-01T20:11:53.619Z,2.42
2022-11-01T20:14:20.782Z,2.33
2022-11-01T20:16:47.255Z,2.80
2022-11-01T20:19:17.412Z,2.65
2022-11-01T20:21:44.887Z,2.47
2022-11-01T20:24:11.433Z,2.20
2022-11-01T20:26:38.021Z,2.63
2022-11-01T20:29:04.524Z,2.38
2022-11-01T20:31:31.277Z,2.13
2022-11-01T20:33:58.198Z,2.45
2022-11-01T20:36:24.661Z,2.15
2022-11-01T20:38:51.140Z,2.30
2022-11-01T20:41:19.000Z,2.10
2022-11-01T20:43:45.471Z,2.50
2022-11-01T20:46:12.005Z,2.10
2022-11-01T20:48:38.456Z,1.92
2022-11-01T20:51:14.111Z,2.28
2022-11-01T20:53:41.204Z,1.80
2022-11-01T20:56:08.428Z,1.92
2022-11-01T20:58:40.124Z,2.22
2022-11-01T21:01:14.562Z,2.40
2022-11-01T21:03:41.132Z,2.13
2022-11-01T21:06:16.647Z,2.10
2022-11-01T21:08:46.961Z,1.80
2022-11-01T21:11:43.457Z,1.90
2022-11-01T21:14:19.712Z,2.35
2022-11-01T21:16:48.169Z,2.42
2022-11-01T21:19:22.414Z,1.98
2022-11-01T21:21:55.548Z,2.17
2022-11-01T21:24:30.624Z,1.77
2022-11-01T21:27:12.223Z,2.47
2022-11-01T21:29:48.977Z,2.10
2022-11-01T21:32:30.528Z,2.25
2022-11-01T21:34:58.259Z,2.10
2022-11-01T21:37:28.310Z,2.45
2022-11-01T21:40:01.544Z,1.90
2022-11-01T21:42:32.966Z,2.20
2022-11-01T21:45:00.089Z,2.33
2022-11-01T21:47:30.613Z,1.80
2022-11-01T21:49:57.172Z,2.30
2022-11-01T21:52:24.626Z,2.50
2022-11-01T21:54:52.664Z,2.10
2022-11-01T21:57:19.449Z,2.22
2022-11-01T21:59:46.090Z,2.10
2022-11-01T22:02:14.014Z,2.33
2022-11-01T22:04:40.756Z,2.00
2022-11-01T22:07:08.586Z,2.08
2022-11-01T22:09:35.368Z,2.10
2022-11-01T22:12:01.870Z,2.35
2022-11-01T22:14:28.391Z,2.45
2022-11-01T22:16:54.982Z,2.35
2022-11-01T22:19:21.486Z,1.95
2022-11-01T22:21:48.026Z,2.30
2022-11-01T22:24:14.604Z,2.05
2022-11-01T22:26:41.051Z,1.95
2022-11-01T22:29:07.511Z,2.30
2022-11-01T22:31:34.059Z,2.03
2022-11-01T22:34:01.327Z,2.20
2022-11-01T22:36:30.003Z,2.00
2022-11-01T22:38:59.616Z,2.60
2022-11-01T22:41:33.256Z,2.33
2022-11-01T22:44:05.916Z,2.60
2022-11-01T22:46:46.513Z,2.38
2022-11-01T22:49:20.442Z,2.30
2022-11-01T22:51:50.484Z,2.78
2022-11-01T22:54:27.652Z,2.28
2022-11-01T22:57:21.864Z,2.63
2022-11-01T23:02:30.927Z,2.88
2022-11-01T23:05:06.782Z,2.22
2022-11-01T23:07:35.882Z,2.55
2022-11-01T23:10:05.446Z,1.95
2022-11-01T23:12:52.445Z,2.45
2022-11-01T23:15:23.362Z,2.63
2022-11-01T23:17:49.816Z,2.50
2022-11-01T23:20:17.253Z,2.60
2022-11-01T23:22:43.707Z,2.33
2022-11-01T23:25:10.147Z,2.25
2022-11-01T23:27:36.712Z,2.67
2022-11-01T23:30:03.331Z,1.95
2022-11-01T23:32:30.575Z,2.50
2022-11-01T23:35:11.648Z,2.10
2022-11-01T23:37:38.090Z,2.10
2022-11-01T23:40:13.405Z,2.50
2022-11-01T23:42:39.869Z,2.50
2022-11-01T23:45:20.493Z,2.05
2022-11-01T23:47:46.946Z,1.77
2022-11-01T23:50:20.023Z,2.75
2022-11-01T23:52:48.494Z,2.53
2022-11-01T23:55:24.285Z,2.55
2022-11-01T23:57:55.732Z,2.42
